createdAt,value
2023-05-02T00:02:18.962Z,6.29
2023-05-02T00:05:22.273Z,6.42
2023-05-02T00:08:26.947Z,6.23
2023-05-02T00:11:30.136Z,6.27
2023-05-02T00:14:33.234Z,6.16
2023-05-02T00:17:36.632Z,6.50
2023-05-02T00:20:41.143Z,6.26
2023-05-02T00:23:45.704Z,6.02
2023-05-02T00:26:48.829Z,6.00
2023-05-02T00:29:52.326Z,6.03
2023-05-02T00:32:55.556Z,6.01
2023-05-02T00:35:58.696Z,6.06
2023-05-02T00:39:04.223Z,6.06
2023-05-02T00:42:07.637Z,5.87
2023-05-02T00:45:12.355Z,5.94
2023-05-02T00:48:17.865Z,6.26
2023-05-02T00:51:21.328Z,5.92
2023-05-02T00:54:25.926Z,5.78
2023-05-02T00:57:29.066Z,5.73
2023-05-02T01:00:44.254Z,5.77
2023-05-02T01:04:02.281Z,5.60
2023-05-02T01:07:29.329Z,5.56
2023-05-02T01:10:47.485Z,5.57
2023-05-02T01:13:54.198Z,5.56
2023-05-02T01:16:59.757Z,5.56
2023-05-02T01:20:07.931Z,5.67
2023-05-02T01:23:18.486Z,5.69
2023-05-02T01:26:31.410Z,5.84
2023-05-02T01:29:38.634Z,5.62
2023-05-02T01:32:44.995Z,5.53
2023-05-02T01:35:51.710Z,5.74
2023-05-02T01:38:57.798Z,5.65
2023-05-02T01:42:04.566Z,5.59
2023-05-02T01:45:12.089Z,5.53
2023-05-02T01:48:18.815Z,5.59
2023-05-02T01:51:23.880Z,5.59
2023-05-02T01:54:28.396Z,5.50
2023-05-02T01:57:32.313Z,5.50
2023-05-02T02:00:38.934Z,5.37
2023-05-02T02:03:43.830Z,5.29
2023-05-02T02:06:50.537Z,5.27
2023-05-02T02:09:53.838Z,5.27
2023-05-02T02:13:14.967Z,5.19
2023-05-02T02:16:30.042Z,5.05
2023-05-02T02:19:34.346Z,5.10
2023-05-02T02:22:40.996Z,5.31
2023-05-02T02:25:46.334Z,5.42
2023-05-02T02:28:52.176Z,5.38
2023-05-02T02:31:58.261Z,5.23
2023-05-02T02:35:03.001Z,5.41
2023-05-02T02:38:15.985Z,5.31
2023-05-02T02:41:28.419Z,5.24
2023-05-02T02:44:41.133Z,5.32
2023-05-02T02:47:52.097Z,5.23
2023-05-02T02:51:04.607Z,5.19
2023-05-02T02:54:26.546Z,5.24
2023-05-02T02:57:45.651Z,5.25
2023-05-02T03:00:50.398Z,5.07
2023-05-02T03:03:56.846Z,5.02
2023-05-02T03:07:03.601Z,5.01
2023-05-02T03:10:09.609Z,4.99
2023-05-02T03:13:14.273Z,4.75
2023-05-02T03:16:38.352Z,4.95
2023-05-02T03:19:46.313Z,4.68
2023-05-02T03:22:49.674Z,4.67
2023-05-02T03:25:53.739Z,4.68
2023-05-02T03:29:00.458Z,4.73
2023-05-02T03:34:47.084Z,4.48
2023-05-02T03:37:50.841Z,4.57
2023-05-02T03:40:54.306Z,4.78
2023-05-02T03:43:57.499Z,4.38
2023-05-02T03:47:02.937Z,4.50
2023-05-02T03:50:13.419Z,4.40
2023-05-02T03:53:17.335Z,4.45
2023-05-02T03:56:28.121Z,4.38
2023-05-02T03:59:47.254Z,4.49
2023-05-02T04:03:02.700Z,4.59
2023-05-02T04:06:08.980Z,4.61
2023-05-02T04:09:12.300Z,4.67
2023-05-02T04:12:22.931Z,4.76
2023-05-02T04:15:28.586Z,4.70
2023-05-02T04:18:32.169Z,4.76
2023-05-02T04:21:39.149Z,4.84
2023-05-02T04:24:43.423Z,4.94
2023-05-02T04:27:46.661Z,5.04
2023-05-02T04:30:53.738Z,4.91
2023-05-02T04:33:59.567Z,5.06
2023-05-02T04:37:08.461Z,5.25
2023-05-02T04:40:13.429Z,5.23
2023-05-02T04:43:16.660Z,5.32
2023-05-02T04:46:25.580Z,5.27
2023-05-02T04:49:29.269Z,5.31
2023-05-02T04:52:33.783Z,6.23
2023-05-02T04:55:37.018Z,5.52
2023-05-02T04:58:40.944Z,5.66
2023-05-02T05:01:46.272Z,5.79
2023-05-02T05:04:49.591Z,5.90
2023-05-02T05:07:55.498Z,6.00
2023-05-02T05:11:01.767Z,6.20
2023-05-02T05:14:05.106Z,6.26
2023-05-02T05:17:10.904Z,6.06
2023-05-02T05:20:14.889Z,6.14
2023-05-02T05:23:19.952Z,6.37
2023-05-02T05:26:23.751Z,6.32
2023-05-02T05:29:28.276Z,6.43
2023-05-02T05:32:31.624Z,6.75
2023-05-02T05:35:35.179Z,6.60
2023-05-02T05:38:40.636Z,6.63
2023-05-02T05:41:46.291Z,6.66
2023-05-02T05:44:50.260Z,6.88
2023-05-02T05:47:55.225Z,6.77
2023-05-02T05:51:04.800Z,6.99
2023-05-02T05:54:09.771Z,7.00
2023-05-02T05:57:14.106Z,7.39
2023-05-02T06:00:19.032Z,7.37
2023-05-02T06:03:26.480Z,7.36
2023-05-02T06:06:30.014Z,7.29
2023-05-02T06:09:34.625Z,7.30
2023-05-02T06:12:37.964Z,7.41
2023-05-02T06:15:42.220Z,7.71
2023-05-02T06:18:45.526Z,7.69
2023-05-02T06:21:50.798Z,7.68
2023-05-02T06:24:55.767Z,7.75
2023-05-02T06:27:58.978Z,7.98
2023-05-02T06:31:03.499Z,7.87
2023-05-02T06:34:07.866Z,8.06
2023-05-02T06:37:11.175Z,8.07
2023-05-02T06:40:16.029Z,8.18
2023-05-02T06:43:19.441Z,8.45
2023-05-02T06:46:23.179Z,8.55
2023-05-02T06:49:27.126Z,8.44
2023-05-02T06:52:30.343Z,8.59
2023-05-02T06:55:35.336Z,9.07
2023-05-02T06:58:38.553Z,8.70
2023-05-02T07:01:41.933Z,8.85
2023-05-02T07:04:45.499Z,8.80
2023-05-02T07:07:48.815Z,9.41
2023-05-02T07:10:53.379Z,8.84
2023-05-02T07:13:56.559Z,8.92
2023-05-02T07:16:59.831Z,9.07
2023-05-02T07:20:03.906Z,9.23
2023-05-02T07:23:07.489Z,9.10
2023-05-02T07:26:12.065Z,9.22
2023-05-02T07:29:15.238Z,9.28
2023-05-02T07:32:18.718Z,9.19
2023-05-02T07:35:22.569Z,9.40
2023-05-02T07:38:25.824Z,9.62
2023-05-02T07:41:30.672Z,9.41
2023-05-02T07:44:34.967Z,9.55
2023-05-02T07:47:38.193Z,9.94
2023-05-02T07:50:41.660Z,9.63
2023-05-02T07:53:44.810Z,9.71
2023-05-02T07:56:49.889Z,9.49
2023-05-02T07:59:53.427Z,9.57
2023-05-02T08:02:56.704Z,9.46
2023-05-02T08:06:02.025Z,9.41
2023-05-02T08:09:05.389Z,9.47
2023-05-02T08:12:10.031Z,9.51
2023-05-02T08:15:13.968Z,9.38
2023-05-02T08:18:17.201Z,9.32
2023-05-02T08:21:20.589Z,9.46
2023-05-02T08:24:23.789Z,9.27
2023-05-02T08:27:28.798Z,9.91
2023-05-02T08:30:32.068Z,9.38
2023-05-02T08:33:35.241Z,9.67
2023-05-02T08:36:38.511Z,9.85
2023-05-02T08:39:41.623Z,9.77
2023-05-02T08:42:46.170Z,10.04
2023-05-02T08:45:53.775Z,9.86
2023-05-02T08:48:58.987Z,9.97
2023-05-02T08:52:03.114Z,10.11
2023-05-02T08:55:08.563Z,10.01
2023-05-02T08:58:14.738Z,10.17
2023-05-02T09:01:23.537Z,10.22
2023-05-02T09:04:32.747Z,10.46
2023-05-02T09:07:45.654Z,10.64
2023-05-02T09:10:49.250Z,11.23
2023-05-02T09:13:58.814Z,11.33
2023-05-02T09:17:02.719Z,11.54
2023-05-02T09:20:12.640Z,12.05
2023-05-02T09:23:15.864Z,11.66
2023-05-02T09:26:21.104Z,12.04
2023-05-02T09:29:25.684Z,12.49
2023-05-02T09:35:05.896Z,12.72
2023-05-02T09:38:21.015Z,12.94
2023-05-02T09:41:24.281Z,13.19
2023-05-02T09:44:28.620Z,13.61
2023-05-02T09:47:31.831Z,13.09
2023-05-02T09:50:38.732Z,13.12
2023-05-02T09:53:45.368Z,14.04
2023-05-02T09:56:56.501Z,14.23
2023-05-02T09:59:59.922Z,13.31
2023-05-02T10:03:05.170Z,13.27
2023-05-02T10:06:10.260Z,13.79
2023-05-02T10:09:19.599Z,13.60
2023-05-02T10:12:27.722Z,13.89
2023-05-02T10:15:32.431Z,14.24
2023-05-02T10:18:43.458Z,13.52
2023-05-02T10:21:48.477Z,14.07
2023-05-02T10:24:51.753Z,13.93
2023-05-02T10:27:57.677Z,13.96
2023-05-02T10:31:02.866Z,13.51
2023-05-02T10:34:10.574Z,13.79
2023-05-02T10:37:16.860Z,14.84
2023-05-02T10:40:20.159Z,14.11
2023-05-02T10:43:25.803Z,14.24
2023-05-02T10:46:33.237Z,14.88
2023-05-02T10:49:50.959Z,13.77
2023-05-02T10:52:55.558Z,14.12
2023-05-02T10:56:21.116Z,14.77
2023-05-02T10:59:29.044Z,14.19
2023-05-02T11:02:51.574Z,14.47
2023-05-02T11:06:12.915Z,15.13
2023-05-02T11:09:36.926Z,14.75
2023-05-02T11:12:47.907Z,15.47
2023-05-02T11:15:57.925Z,15.30
2023-05-02T11:19:02.169Z,15.43
2023-05-02T11:22:32.506Z,15.27
2023-05-02T11:25:43.407Z,15.78
2023-05-02T11:28:48.142Z,14.91
2023-05-02T11:31:55.618Z,15.14
2023-05-02T11:34:59.341Z,14.93
2023-05-02T11:38:04.897Z,15.46
2023-05-02T11:41:09.965Z,15.12
2023-05-02T11:44:13.173Z,14.63
2023-05-02T11:47:16.499Z,14.05
2023-05-02T11:50:20.085Z,15.07
2023-05-02T11:53:25.556Z,14.82
2023-05-02T11:56:30.229Z,14.96
2023-05-02T11:59:50.763Z,14.48
2023-05-02T12:02:54.488Z,14.78
2023-05-02T12:05:58.519Z,14.86
2023-05-02T12:09:09.065Z,14.14
2023-05-02T12:12:14.053Z,14.34
2023-05-02T12:15:18.221Z,14.53
2023-05-02T12:18:24.140Z,14.75
2023-05-02T12:21:29.255Z,14.85
2023-05-02T12:24:32.709Z,14.63
2023-05-02T12:27:38.050Z,14.37
2023-05-02T12:30:41.795Z,14.80
2023-05-02T12:33:45.321Z,15.48
2023-05-02T12:36:48.581Z,15.03
2023-05-02T12:39:52.675Z,14.84
2023-05-02T12:43:03.956Z,15.06
2023-05-02T12:46:11.525Z,14.51
2023-05-02T12:49:14.726Z,14.39
2023-05-02T12:52:17.992Z,14.28
2023-05-02T12:55:24.311Z,13.36
2023-05-02T12:58:29.357Z,12.96
2023-05-02T13:01:34.471Z,12.67
2023-05-02T13:04:39.078Z,12.29
2023-05-02T13:07:42.260Z,12.01
2023-05-02T13:10:45.442Z,12.08
2023-05-02T13:13:50.057Z,11.42
2023-05-02T13:16:55.425Z,11.49
2023-05-02T13:20:01.961Z,10.93
2023-05-02T13:23:07.353Z,11.27
2023-05-02T13:26:10.611Z,11.49
2023-05-02T13:29:15.125Z,11.15
2023-05-02T13:32:18.866Z,10.89
2023-05-02T13:35:22.158Z,10.82
2023-05-02T13:38:25.375Z,10.79
2023-05-02T13:41:28.868Z,10.49
2023-05-02T13:44:33.761Z,10.60
2023-05-02T13:47:38.762Z,10.93
2023-05-02T13:50:42.706Z,10.78
2023-05-02T13:53:45.946Z,11.08
2023-05-02T13:56:49.119Z,11.07
2023-05-02T13:59:53.708Z,11.50
2023-05-02T14:02:57.104Z,11.79
2023-05-02T14:06:00.523Z,12.23
2023-05-02T14:09:04.030Z,12.87
2023-05-02T14:12:08.217Z,13.11
2023-05-02T14:15:13.466Z,13.18
2023-05-02T14:18:17.296Z,13.62
2023-05-02T14:21:20.836Z,13.26
2023-05-02T14:24:24.129Z,13.79
2023-05-02T14:27:27.582Z,14.13
2023-05-02T14:30:32.538Z,13.73
2023-05-02T14:33:35.911Z,13.97
2023-05-02T14:36:39.116Z,13.84
2023-05-02T14:39:44.784Z,13.79
2023-05-02T14:42:48.382Z,13.82
2023-05-02T14:45:52.872Z,13.92
2023-05-02T14:48:56.038Z,14.08
2023-05-02T14:51:59.176Z,14.32
2023-05-02T14:55:03.136Z,14.50
2023-05-02T14:58:07.436Z,14.68
2023-05-02T15:01:18.476Z,14.20
2023-05-02T15:04:22.159Z,14.34
2023-05-02T15:07:26.080Z,14.41
2023-05-02T15:10:29.822Z,14.41
2023-05-02T15:13:33.104Z,14.57
2023-05-02T15:16:39.216Z,14.80
2023-05-02T15:19:42.401Z,14.65
2023-05-02T15:22:45.719Z,14.37
2023-05-02T15:25:49.052Z,14.67
2023-05-02T15:28:52.422Z,14.74
2023-05-02T15:34:46.843Z,14.54
2023-05-02T15:37:50.001Z,14.42
2023-05-02T15:40:57.214Z,14.19
2023-05-02T15:44:01.085Z,14.93
2023-05-02T15:47:04.734Z,14.62
2023-05-02T15:50:12.608Z,14.99
2023-05-02T15:53:16.639Z,14.95
2023-05-02T15:56:21.109Z,14.62
2023-05-02T15:59:24.288Z,14.82
2023-05-02T16:02:27.463Z,14.72
2023-05-02T16:05:32.011Z,14.80
2023-05-02T16:08:35.346Z,14.80
2023-05-02T16:11:38.475Z,14.76
2023-05-02T16:14:41.714Z,15.00
2023-05-02T16:17:44.951Z,14.63
2023-05-02T16:20:50.092Z,14.75
2023-05-02T16:23:53.288Z,14.58
2023-05-02T16:26:56.531Z,14.57
2023-05-02T16:30:00.099Z,14.73
2023-05-02T16:33:03.852Z,14.65
2023-05-02T16:36:09.422Z,14.34
2023-05-02T16:39:12.666Z,14.63
2023-05-02T16:42:15.804Z,14.63
2023-05-02T16:45:18.937Z,14.42
2023-05-02T16:48:22.936Z,14.52
2023-05-02T16:51:27.957Z,14.54
2023-05-02T16:54:31.084Z,14.49
2023-05-02T16:57:34.305Z,14.45
2023-05-02T17:00:38.484Z,14.21
2023-05-02T17:03:41.835Z,14.22
2023-05-02T17:06:47.624Z,14.37
2023-05-02T17:09:50.865Z,14.29
2023-05-02T17:12:55.921Z,14.18
2023-05-02T17:15:59.922Z,14.04
2023-05-02T17:19:03.176Z,14.07
2023-05-02T17:22:08.448Z,13.95
2023-05-02T17:25:11.740Z,13.65
2023-05-02T17:28:15.321Z,13.44
2023-05-02T17:31:18.912Z,13.58
2023-05-02T17:34:26.585Z,13.59
2023-05-02T17:37:31.116Z,13.36
2023-05-02T17:40:35.995Z,13.30
2023-05-02T17:43:42.320Z,13.38
2023-05-02T17:46:46.623Z,13.26
2023-05-02T17:49:51.250Z,13.06
2023-05-02T17:52:56.158Z,13.03
2023-05-02T17:55:59.368Z,12.94
2023-05-02T17:59:02.541Z,12.82
2023-05-02T18:02:07.091Z,12.71
2023-05-02T18:05:12.742Z,12.73
2023-05-02T18:08:17.538Z,12.62
2023-05-02T18:11:22.230Z,12.35
2023-05-02T18:14:25.515Z,12.63
2023-05-02T18:17:29.245Z,12.59
2023-05-02T18:20:32.736Z,12.59
2023-05-02T18:23:37.254Z,12.63
2023-05-02T18:26:40.503Z,12.38
2023-05-02T18:29:44.028Z,12.38
2023-05-02T18:32:47.456Z,12.22
2023-05-02T18:35:50.887Z,12.14
2023-05-02T18:38:55.875Z,11.99
2023-05-02T18:41:59.494Z,11.68
2023-05-02T18:45:04.070Z,11.71
2023-05-02T18:48:08.982Z,11.59
2023-05-02T18:51:12.165Z,11.45
2023-05-02T18:54:16.611Z,11.63
2023-05-02T18:57:19.763Z,11.54
2023-05-02T19:00:24.333Z,11.92
2023-05-02T19:03:27.703Z,11.60
2023-05-02T19:06:31.573Z,11.64
2023-05-02T19:09:36.112Z,11.48
2023-05-02T19:12:39.915Z,11.33
2023-05-02T19:15:44.459Z,11.34
2023-05-02T19:18:51.506Z,11.25
2023-05-02T19:21:54.786Z,10.90
2023-05-02T19:24:59.466Z,11.01
2023-05-02T19:28:02.747Z,10.99
2023-05-02T19:31:09.311Z,11.02
2023-05-02T19:34:12.544Z,11.11
2023-05-02T19:37:15.727Z,10.91
2023-05-02T19:40:20.322Z,10.94
2023-05-02T19:43:23.687Z,10.59
2023-05-02T19:46:27.101Z,10.57
2023-05-02T19:49:30.279Z,10.48
2023-05-02T19:52:34.360Z,10.01
2023-05-02T19:55:39.223Z,10.44
2023-05-02T19:58:42.478Z,10.42
2023-05-02T20:01:46.643Z,10.31
2023-05-02T20:04:50.237Z,10.04
2023-05-02T20:07:53.441Z,10.08
2023-05-02T20:10:57.933Z,9.92
2023-05-02T20:14:01.303Z,9.84
2023-05-02T20:17:04.692Z,9.90
2023-05-02T20:20:11.879Z,9.85
2023-05-02T20:23:15.984Z,9.72
2023-05-02T20:26:21.084Z,9.58
2023-05-02T20:29:24.732Z,9.66
2023-05-02T20:32:27.993Z,9.89
2023-05-02T20:35:31.499Z,10.09
2023-05-02T20:38:34.671Z,9.71
2023-05-02T20:41:39.743Z,9.44
2023-05-02T20:44:45.664Z,9.57
2023-05-02T20:47:49.167Z,9.56
2023-05-02T20:50:53.815Z,9.31
2023-05-02T20:53:58.169Z,9.83
2023-05-02T20:57:03.560Z,9.36
2023-05-02T21:00:11.349Z,9.24
2023-05-02T21:03:14.694Z,9.32
2023-05-02T21:06:19.674Z,9.29
2023-05-02T21:09:23.397Z,9.11
2023-05-02T21:12:28.540Z,9.18
2023-05-02T21:15:36.262Z,9.29
2023-05-02T21:18:39.992Z,9.48
2023-05-02T21:21:43.252Z,9.47
2023-05-02T21:24:48.210Z,9.76
2023-05-02T21:27:53.336Z,9.84
2023-05-02T21:34:46.705Z,9.81
2023-05-02T21:37:50.097Z,9.85
2023-05-02T21:40:53.632Z,9.31
2023-05-02T21:43:56.875Z,8.99
2023-05-02T21:47:00.083Z,8.98
2023-05-02T21:50:05.408Z,8.83
2023-05-02T21:53:09.222Z,8.64
2023-05-02T21:56:12.545Z,8.71
2023-05-02T21:59:15.706Z,9.03
2023-05-02T22:02:18.934Z,8.74
2023-05-02T22:05:23.419Z,8.75
2023-05-02T22:08:27.249Z,8.57
2023-05-02T22:11:31.657Z,8.40
2023-05-02T22:14:44.377Z,8.51
2023-05-02T22:17:49.035Z,8.41
2023-05-02T22:20:54.084Z,8.31
2023-05-02T22:23:57.691Z,8.42
2023-05-02T22:27:00.869Z,8.35
2023-05-02T22:30:04.928Z,8.49
2023-05-02T22:33:09.267Z,8.51
2023-05-02T22:36:13.803Z,8.38
2023-05-02T22:39:16.971Z,8.40
2023-05-02T22:42:20.255Z,8.31
2023-05-02T22:45:23.487Z,8.31
2023-05-02T22:48:26.695Z,8.32
2023-05-02T22:51:31.338Z,8.32
2023-05-02T22:54:34.402Z,8.08
2023-05-02T22:57:37.609Z,8.22
2023-05-02T23:00:40.716Z,8.36
2023-05-02T23:03:43.900Z,8.38
2023-05-02T23:06:48.834Z,8.34
2023-05-02T23:09:51.931Z,8.53
2023-05-02T23:12:56.035Z,8.39
2023-05-02T23:15:59.401Z,8.53
2023-05-02T23:19:02.605Z,8.52
2023-05-02T23:22:07.117Z,8.45
2023-05-02T23:25:11.758Z,8.37
2023-05-02T23:28:14.922Z,8.10
2023-05-02T23:31:18.122Z,8.07
2023-05-02T23:34:21.876Z,7.84
2023-05-02T23:37:28.091Z,7.87
2023-05-02T23:40:32.647Z,7.58
2023-05-02T23:43:35.823Z,7.39
2023-05-02T23:46:39.602Z,7.29
2023-05-02T23:49:42.776Z,7.19
2023-05-02T23:52:47.370Z,7.06
2023-05-02T23:55:50.582Z,7.14
2023-05-02T23:58:53.710Z,7.02
